Terminal Aerodrome Forecast
Issued by NWS Cleveland, OH

Home | Current Version | Previous Version | Graphics & Text | Print | Product List | Glossary On
Versions: 1 2 3 4 5 6 7 8 9 10 11 12 13 14 15 16 17 18 19 20 21 22
000
FTUS41 KCLE 260200 AAA
TAFCLE
TAF AMD
KCLE 260253Z 2603/2706 22008KT P6SM BKN150
     FM261000 20008KT 6SM HZ BKN025
     FM261400 20010KT 6SM HZ BKN040
     FM262000 19012G20KT P6SM VCSH OVC040=

USA.gov is the U.S. government's official web portal to all federal, state and local government web resources and services.